createdAt,value
2022-10-07T00:00:48.348Z,4.13
2022-10-07T00:03:16.019Z,4.65
2022-10-07T00:05:43.474Z,4.55
2022-10-07T00:08:10.876Z,3.67
2022-10-07T00:10:39.717Z,5.28
2022-10-07T00:13:08.005Z,4.15
2022-10-07T00:15:35.637Z,3.88
2022-10-07T00:18:03.136Z,4.05
2022-10-07T00:20:30.560Z,4.00
2022-10-07T00:22:58.164Z,4.13
2022-10-07T00:25:26.171Z,3.97
2022-10-07T00:27:53.507Z,3.40
2022-10-07T00:30:20.931Z,3.80
2022-10-07T00:32:48.518Z,3.40
2022-10-07T00:35:15.890Z,3.50
2022-10-07T00:37:43.642Z,3.85
2022-10-07T00:40:12.382Z,3.72
2022-10-07T00:42:40.624Z,3.90
2022-10-07T00:45:19.398Z,3.92
2022-10-07T00:47:47.848Z,4.00
2022-10-07T00:50:18.453Z,4.13
2022-10-07T00:52:49.330Z,4.38
2022-10-07T00:55:18.653Z,3.67
2022-10-07T00:57:47.887Z,4.20
2022-10-07T01:00:15.603Z,3.63
2022-10-07T01:02:42.860Z,3.80
2022-10-07T01:05:10.540Z,3.90
2022-10-07T01:07:39.189Z,4.35
2022-10-07T01:10:07.038Z,3.72
2022-10-07T01:12:47.846Z,3.45
2022-10-07T01:15:24.883Z,4.10
2022-10-07T01:18:07.827Z,3.83
2022-10-07T01:20:37.215Z,3.50
2022-10-07T01:23:23.055Z,3.35
2022-10-07T01:26:11.202Z,3.75
2022-10-07T01:28:40.081Z,2.97
2022-10-07T01:31:08.585Z,3.00
2022-10-07T01:33:35.931Z,3.53
2022-10-07T01:36:11.517Z,3.60
2022-10-07T01:38:42.489Z,3.38
2022-10-07T01:41:11.871Z,3.75
2022-10-07T01:43:40.089Z,3.05
2022-10-07T01:46:08.655Z,3.72
2022-10-07T01:48:36.198Z,3.58
2022-10-07T01:51:03.446Z,3.55
2022-10-07T01:53:36.588Z,3.45
2022-10-07T01:56:03.742Z,3.63
2022-10-07T01:58:39.527Z,3.80
2022-10-07T02:01:06.790Z,3.55
2022-10-07T02:03:43.339Z,3.50
2022-10-07T02:06:10.702Z,3.13
2022-10-07T02:08:40.675Z,3.53
2022-10-07T02:11:07.811Z,3.78
2022-10-07T02:13:34.880Z,4.43
2022-10-07T02:16:19.667Z,4.13
2022-10-07T02:18:49.415Z,3.60
2022-10-07T02:21:18.836Z,4.10
2022-10-07T02:23:47.159Z,4.13
2022-10-07T02:26:15.540Z,4.13
2022-10-07T02:28:43.358Z,3.83
2022-10-07T02:31:11.494Z,3.60
2022-10-07T02:33:40.960Z,4.43
2022-10-07T02:36:16.824Z,4.00
2022-10-07T02:38:44.507Z,4.32
2022-10-07T02:41:31.416Z,3.45
2022-10-07T02:44:18.974Z,3.63
2022-10-07T02:46:54.616Z,3.50
2022-10-07T02:49:23.352Z,3.55
2022-10-07T02:52:05.437Z,3.85
2022-10-07T02:54:38.490Z,3.60
2022-10-07T02:57:08.986Z,3.70
2022-10-07T02:59:37.706Z,3.55
2022-10-07T03:02:07.057Z,4.18
2022-10-07T03:04:34.264Z,4.00
2022-10-07T03:07:01.861Z,3.45
2022-10-07T03:09:29.512Z,3.65
2022-10-07T03:11:56.670Z,3.03
2022-10-07T03:14:24.903Z,3.30
2022-10-07T03:16:55.392Z,4.20
2022-10-07T03:19:22.693Z,3.45
2022-10-07T03:21:50.080Z,4.25
2022-10-07T03:24:17.911Z,3.80
2022-10-07T03:26:45.247Z,3.88
2022-10-07T03:29:14.010Z,4.30
2022-10-07T03:31:42.527Z,4.05
2022-10-07T03:34:10.384Z,3.60
2022-10-07T03:36:38.597Z,3.60
2022-10-07T03:39:05.649Z,3.60
2022-10-07T03:41:33.328Z,3.83
2022-10-07T03:44:00.474Z,3.13
2022-10-07T03:46:27.671Z,3.80
2022-10-07T03:48:54.867Z,3.50
2022-10-07T03:51:22.049Z,2.95
2022-10-07T03:53:49.262Z,3.90
2022-10-07T03:56:16.395Z,3.42
2022-10-07T03:58:43.457Z,3.55
2022-10-07T04:01:11.898Z,4.05
2022-10-07T04:03:39.052Z,3.55
2022-10-07T04:06:06.452Z,3.58
2022-10-07T04:08:34.180Z,3.33
2022-10-07T04:11:02.261Z,3.17
2022-10-07T04:13:29.651Z,3.65
2022-10-07T04:15:56.851Z,3.33
2022-10-07T04:18:24.339Z,3.30
2022-10-07T04:20:51.616Z,3.50
2022-10-07T04:23:19.226Z,3.38
2022-10-07T04:25:47.065Z,3.22
2022-10-07T04:28:16.270Z,3.72
2022-10-07T04:30:44.155Z,2.92
2022-10-07T04:33:12.063Z,3.78
2022-10-07T04:35:41.185Z,3.47
2022-10-07T04:38:12.213Z,3.42
2022-10-07T04:40:44.425Z,3.00
2022-10-07T04:43:26.958Z,3.92
2022-10-07T04:45:55.465Z,3.72
2022-10-07T04:48:23.834Z,3.45
2022-10-07T04:50:53.953Z,3.75
2022-10-07T04:53:21.381Z,3.88
2022-10-07T04:55:50.085Z,3.75
2022-10-07T04:58:17.466Z,3.90
2022-10-07T05:00:49.263Z,4.25
2022-10-07T05:03:17.274Z,4.00
2022-10-07T05:05:45.714Z,3.75
2022-10-07T05:08:13.424Z,4.05
2022-10-07T05:10:40.815Z,3.97
2022-10-07T05:13:09.722Z,3.72
2022-10-07T05:15:36.834Z,4.20
2022-10-07T05:18:04.008Z,3.97
2022-10-07T05:20:31.358Z,3.63
2022-10-07T05:22:59.569Z,3.22
2022-10-07T05:25:26.982Z,3.30
2022-10-07T05:27:54.119Z,3.60
2022-10-07T05:30:21.323Z,3.55
2022-10-07T05:32:48.510Z,3.63
2022-10-07T05:35:15.763Z,3.40
2022-10-07T05:37:46.362Z,3.30
2022-10-07T05:40:15.984Z,3.55
2022-10-07T05:42:43.251Z,3.92
2022-10-07T05:45:10.615Z,3.83
2022-10-07T05:47:37.807Z,3.90
2022-10-07T05:50:05.878Z,4.28
2022-10-07T05:52:33.472Z,3.50
2022-10-07T05:55:00.737Z,4.88
2022-10-07T05:57:27.838Z,4.72
2022-10-07T05:59:56.586Z,5.32
2022-10-07T06:02:23.856Z,4.35
2022-10-07T06:04:51.534Z,4.97
2022-10-07T06:07:21.986Z,4.95
2022-10-07T06:10:09.251Z,5.63
2022-10-07T06:12:56.659Z,5.50
2022-10-07T06:15:23.754Z,5.78
2022-10-07T06:17:50.889Z,5.57
2022-10-07T06:20:17.965Z,8.32
2022-10-07T06:22:45.219Z,8.48
2022-10-07T06:25:12.374Z,8.57
2022-10-07T06:27:39.508Z,6.70
2022-10-07T06:30:07.602Z,6.50
2022-10-07T06:32:34.748Z,6.70
2022-10-07T06:35:01.859Z,6.80
2022-10-07T06:37:31.555Z,6.55
2022-10-07T06:39:59.870Z,9.55
2022-10-07T06:42:27.271Z,8.40
2022-10-07T06:44:54.487Z,9.45
2022-10-07T06:47:22.286Z,7.13
2022-10-07T06:49:49.548Z,6.80
2022-10-07T06:52:16.824Z,6.80
2022-10-07T06:54:43.947Z,6.43
2022-10-07T06:57:26.707Z,6.57
2022-10-07T06:59:58.166Z,6.15
2022-10-07T07:02:26.012Z,7.40
2022-10-07T07:04:57.657Z,6.25
2022-10-07T07:07:25.037Z,10.80
2022-10-07T07:09:52.593Z,36.40
2022-10-07T07:12:19.707Z,11.82
2022-10-07T07:14:46.844Z,10.48
2022-10-07T07:17:13.938Z,17.25
2022-10-07T07:19:41.082Z,8.93
2022-10-07T07:22:08.919Z,8.23
2022-10-07T07:24:38.194Z,7.72
2022-10-07T07:27:05.256Z,7.93
2022-10-07T07:29:33.002Z,7.38
2022-10-07T07:32:00.289Z,7.30
2022-10-07T07:34:29.775Z,6.07
2022-10-07T07:36:57.264Z,4.82
2022-10-07T07:39:24.474Z,5.30
2022-10-07T07:41:51.692Z,5.07
2022-10-07T07:44:19.213Z,5.55
2022-10-07T07:46:48.464Z,4.22
2022-10-07T07:49:16.021Z,3.70
2022-10-07T07:51:43.397Z,3.60
2022-10-07T07:54:11.205Z,4.95
2022-10-07T07:56:38.332Z,3.40
2022-10-07T07:59:05.767Z,3.30
2022-10-07T08:01:34.066Z,3.97
2022-10-07T08:04:01.208Z,2.72
2022-10-07T08:06:30.241Z,3.50
2022-10-07T08:08:58.396Z,3.08
2022-10-07T08:11:26.149Z,2.67
2022-10-07T08:13:55.326Z,2.72
2022-10-07T08:16:23.545Z,2.67
2022-10-07T08:18:51.426Z,2.90
2022-10-07T08:21:20.169Z,3.53
2022-10-07T08:23:50.027Z,3.25
2022-10-07T08:26:17.174Z,3.50
2022-10-07T08:28:45.129Z,4.85
2022-10-07T08:31:13.087Z,3.97
2022-10-07T08:33:41.165Z,3.08
2022-10-07T08:36:09.282Z,3.58
2022-10-07T08:38:37.299Z,7.97
2022-10-07T08:41:12.530Z,5.07
2022-10-07T08:43:47.741Z,4.78
2022-10-07T08:46:16.531Z,3.83
2022-10-07T08:48:45.949Z,5.75
2022-10-07T08:51:25.476Z,5.40
2022-10-07T08:53:54.656Z,4.95
2022-10-07T08:56:23.576Z,6.22
2022-10-07T08:59:09.644Z,5.28
2022-10-07T09:01:44.165Z,7.05
2022-10-07T09:04:21.155Z,4.28
2022-10-07T09:07:08.505Z,3.75
2022-10-07T09:09:38.707Z,3.25
2022-10-07T09:12:08.730Z,3.90
2022-10-07T09:14:38.873Z,6.53
2022-10-07T09:17:17.927Z,6.03
2022-10-07T09:19:50.002Z,6.80
2022-10-07T09:22:21.588Z,5.70
2022-10-07T09:24:49.611Z,4.65
2022-10-07T09:27:22.775Z,3.47
2022-10-07T09:29:51.626Z,3.20
2022-10-07T09:32:19.410Z,2.13
2022-10-07T09:34:46.947Z,2.50
2022-10-07T09:37:19.615Z,2.60
2022-10-07T09:39:47.598Z,1.60
2022-10-07T09:42:28.710Z,2.13
2022-10-07T09:44:56.729Z,2.08
2022-10-07T09:47:27.425Z,1.85
2022-10-07T09:49:56.873Z,1.98
2022-10-07T09:52:25.236Z,1.67
2022-10-07T09:54:54.010Z,2.03
2022-10-07T09:57:28.773Z,2.42
2022-10-07T10:00:16.886Z,2.30
2022-10-07T10:02:47.644Z,2.40
2022-10-07T10:05:22.510Z,2.08
2022-10-07T10:07:53.741Z,2.53
2022-10-07T10:10:27.096Z,2.58
2022-10-07T10:12:55.920Z,5.85
2022-10-07T10:15:41.189Z,5.82
2022-10-07T10:18:26.970Z,3.05
2022-10-07T10:20:54.485Z,2.55
2022-10-07T10:23:33.970Z,2.05
2022-10-07T10:26:33.392Z,3.33
2022-10-07T10:29:07.122Z,2.20
2022-10-07T10:31:35.815Z,3.40
2022-10-07T10:34:03.023Z,2.38
2022-10-07T10:36:32.771Z,11.35
2022-10-07T10:39:25.845Z,6.15
2022-10-07T10:41:54.884Z,5.93
2022-10-07T10:44:31.091Z,1.63
2022-10-07T10:47:01.416Z,1.15
2022-10-07T10:49:47.461Z,0.73
2022-10-07T10:52:32.264Z,0.77
2022-10-07T10:54:59.355Z,0.70
2022-10-07T10:57:41.812Z,1.10
2022-10-07T11:00:09.276Z,0.65
2022-10-07T11:02:39.759Z,0.60
2022-10-07T11:05:11.869Z,1.13
2022-10-07T11:07:48.486Z,0.90
2022-10-07T11:10:18.629Z,1.00
2022-10-07T11:12:48.646Z,0.80
2022-10-07T11:15:19.146Z,0.77
2022-10-07T11:17:49.566Z,0.93
2022-10-07T11:20:31.364Z,0.90
2022-10-07T11:23:01.465Z,1.20
2022-10-07T11:25:32.348Z,1.60
2022-10-07T11:28:04.118Z,0.80
2022-10-07T11:30:37.958Z,0.70
2022-10-07T11:33:08.120Z,1.08
2022-10-07T11:35:44.271Z,1.00
2022-10-07T11:38:14.098Z,0.90
2022-10-07T11:40:43.842Z,1.30
2022-10-07T11:43:17.222Z,1.45
2022-10-07T11:45:52.374Z,1.10
2022-10-07T11:48:22.414Z,1.02
2022-10-07T11:50:55.132Z,1.02
2022-10-07T11:53:24.253Z,1.03
2022-10-07T11:56:00.542Z,0.90
2022-10-07T11:58:32.432Z,0.70
2022-10-07T12:01:18.537Z,1.20
2022-10-07T12:03:47.455Z,0.80
2022-10-07T12:06:14.701Z,1.20
2022-10-07T12:08:43.403Z,1.08
2022-10-07T12:11:13.263Z,1.50
2022-10-07T12:13:40.353Z,1.10
2022-10-07T12:16:26.181Z,0.77
2022-10-07T12:19:09.844Z,0.80
2022-10-07T12:21:57.244Z,0.90
2022-10-07T12:24:24.964Z,0.93
2022-10-07T12:26:52.460Z,1.30
2022-10-07T12:29:22.372Z,1.08
2022-10-07T12:31:52.307Z,1.30
2022-10-07T12:34:34.675Z,0.73
2022-10-07T12:37:20.477Z,1.00
2022-10-07T12:39:47.931Z,1.52
2022-10-07T12:42:15.642Z,1.42
2022-10-07T12:44:52.645Z,1.20
2022-10-07T12:47:23.485Z,0.65
2022-10-07T12:49:51.523Z,0.90
2022-10-07T12:52:22.708Z,1.13
2022-10-07T12:55:03.955Z,0.98
2022-10-07T12:57:35.841Z,0.95
2022-10-07T13:00:08.197Z,1.30
2022-10-07T13:02:52.842Z,1.00
2022-10-07T13:05:43.795Z,1.00
2022-10-07T13:08:26.143Z,1.00
2022-10-07T13:10:56.224Z,0.80
2022-10-07T13:13:34.159Z,1.20
2022-10-07T13:16:09.418Z,1.48
2022-10-07T13:18:41.306Z,1.23
2022-10-07T13:21:22.935Z,1.35
2022-10-07T13:23:51.684Z,1.42
2022-10-07T13:26:20.042Z,1.10
2022-10-07T13:28:55.688Z,2.00
2022-10-07T13:31:24.795Z,1.27
2022-10-07T13:33:52.912Z,0.90
2022-10-07T13:36:22.127Z,1.13
2022-10-07T13:38:50.498Z,1.30
2022-10-07T13:41:22.315Z,0.93
2022-10-07T13:43:54.281Z,1.10
2022-10-07T13:46:26.249Z,9.93
2022-10-07T13:48:56.419Z,1.27
2022-10-07T13:51:33.039Z,1.40
2022-10-07T13:54:01.062Z,1.30
2022-10-07T13:56:40.242Z,2.25
2022-10-07T13:59:07.792Z,1.42
2022-10-07T14:01:40.936Z,1.17
2022-10-07T14:04:25.029Z,1.30
2022-10-07T14:09:22.523Z,3.08
2022-10-07T14:11:53.210Z,1.40
2022-10-07T14:14:21.792Z,1.65
2022-10-07T14:16:51.330Z,1.17
2022-10-07T14:19:22.196Z,1.58
2022-10-07T14:21:49.377Z,2.33
2022-10-07T14:24:20.241Z,1.60
2022-10-07T14:26:47.547Z,1.55
2022-10-07T14:29:29.880Z,1.85
2022-10-07T14:32:51.400Z,1.10
2022-10-07T14:35:19.579Z,1.13
2022-10-07T14:37:47.384Z,4.13
2022-10-07T14:40:18.780Z,6.97
2022-10-07T14:42:46.876Z,3.05
2022-10-07T14:45:17.859Z,1.80
2022-10-07T14:47:46.114Z,2.10
2022-10-07T14:50:14.061Z,1.50
2022-10-07T14:52:44.933Z,1.30
2022-10-07T14:55:24.367Z,4.70
2022-10-07T14:57:51.535Z,3.60
2022-10-07T15:00:23.351Z,1.38
2022-10-07T15:02:50.821Z,1.88
2022-10-07T15:05:19.017Z,1.23
2022-10-07T15:07:46.333Z,1.63
2022-10-07T15:10:15.554Z,2.30
2022-10-07T15:12:44.470Z,1.60
2022-10-07T15:15:12.822Z,1.38
2022-10-07T15:17:40.503Z,1.45
2022-10-07T15:20:08.229Z,2.08
2022-10-07T15:22:35.962Z,1.20
2022-10-07T15:25:03.503Z,1.20
2022-10-07T15:27:33.171Z,1.13
2022-10-07T15:30:00.460Z,1.60
2022-10-07T15:32:30.266Z,2.05
2022-10-07T15:34:58.194Z,1.65
2022-10-07T15:37:27.460Z,1.70
2022-10-07T15:39:54.897Z,2.35
2022-10-07T15:42:24.662Z,1.50
2022-10-07T15:44:51.842Z,1.00
2022-10-07T15:47:19.325Z,1.25
2022-10-07T15:49:46.547Z,1.42
2022-10-07T15:52:13.763Z,1.52
2022-10-07T15:54:41.236Z,1.35
2022-10-07T15:57:08.516Z,1.05
2022-10-07T15:59:36.014Z,1.20
2022-10-07T16:02:04.355Z,1.40
2022-10-07T16:04:31.608Z,2.30
2022-10-07T16:06:59.611Z,1.70
2022-10-07T16:09:27.114Z,2.42
2022-10-07T16:11:54.267Z,14.48
2022-10-07T16:14:21.389Z,4.25
2022-10-07T16:16:48.566Z,3.00
2022-10-07T16:19:15.697Z,7.00
2022-10-07T16:21:43.480Z,14.93
2022-10-07T16:24:10.552Z,11.35
2022-10-07T16:26:37.730Z,4.82
2022-10-07T16:29:25.558Z,3.70
2022-10-07T16:31:58.220Z,3.70
2022-10-07T16:34:27.042Z,6.32
2022-10-07T16:36:54.295Z,3.63
2022-10-07T16:39:22.060Z,2.92
2022-10-07T16:41:49.817Z,3.42
2022-10-07T16:44:17.042Z,2.88
2022-10-07T16:46:44.516Z,3.60
2022-10-07T16:49:13.826Z,3.83
2022-10-07T16:51:43.565Z,5.15
2022-10-07T16:54:15.958Z,4.72
2022-10-07T16:56:48.069Z,5.15
2022-10-07T16:59:21.316Z,4.25
2022-10-07T17:01:50.351Z,5.25
2022-10-07T17:04:17.938Z,5.15
2022-10-07T17:06:45.698Z,5.55
2022-10-07T17:09:13.292Z,5.60
2022-10-07T17:11:40.537Z,7.25
2022-10-07T17:14:18.457Z,7.32
2022-10-07T17:16:46.701Z,6.75
2022-10-07T17:19:14.773Z,6.25
2022-10-07T17:21:42.324Z,6.13
2022-10-07T17:24:10.005Z,5.28
2022-10-07T17:26:38.029Z,5.88
2022-10-07T17:29:07.711Z,5.80
2022-10-07T17:31:36.622Z,5.43
2022-10-07T17:34:03.961Z,5.22
2022-10-07T17:36:33.850Z,5.75
2022-10-07T17:39:01.304Z,6.18
2022-10-07T17:41:30.020Z,5.68
2022-10-07T17:43:58.221Z,5.30
2022-10-07T17:46:26.833Z,5.63
2022-10-07T17:48:55.288Z,5.38
2022-10-07T17:51:24.343Z,5.18
2022-10-07T17:53:52.791Z,5.43
2022-10-07T17:56:20.274Z,6.22
2022-10-07T17:58:48.463Z,6.07
2022-10-07T18:01:18.658Z,6.38
2022-10-07T18:03:50.961Z,6.32
2022-10-07T18:06:18.233Z,5.63
2022-10-07T18:08:45.750Z,6.00
2022-10-07T18:11:12.797Z,5.93
2022-10-07T18:13:58.381Z,3.95
2022-10-07T18:16:25.667Z,4.38
2022-10-07T18:18:56.683Z,4.40
2022-10-07T18:21:24.047Z,4.88
2022-10-07T18:23:52.238Z,4.63
2022-10-07T18:26:19.455Z,5.13
2022-10-07T18:28:46.962Z,5.57
2022-10-07T18:31:15.416Z,5.28
2022-10-07T18:33:42.839Z,5.57
2022-10-07T18:36:12.208Z,6.00
2022-10-07T18:38:40.947Z,5.45
2022-10-07T18:41:12.453Z,5.97
2022-10-07T18:43:39.714Z,6.78
2022-10-07T18:46:17.066Z,6.65
2022-10-07T18:48:45.221Z,6.80
2022-10-07T18:51:13.526Z,6.53
2022-10-07T18:53:41.998Z,6.70
2022-10-07T18:56:13.637Z,7.03
2022-10-07T18:58:41.810Z,6.90
2022-10-07T19:01:13.621Z,6.75
2022-10-07T19:03:41.143Z,7.35
2022-10-07T19:06:09.128Z,6.60
2022-10-07T19:08:36.378Z,6.95
2022-10-07T19:11:05.115Z,5.88
2022-10-07T19:13:48.230Z,5.95
2022-10-07T19:16:16.111Z,5.38
2022-10-07T19:18:46.337Z,5.30
2022-10-07T19:21:13.787Z,5.05
2022-10-07T19:23:40.939Z,5.10
2022-10-07T19:26:09.037Z,5.78
2022-10-07T19:28:37.269Z,6.00
2022-10-07T19:31:18.069Z,5.07
2022-10-07T19:33:46.909Z,5.65
2022-10-07T19:36:14.873Z,5.78
2022-10-07T19:38:44.620Z,6.20
2022-10-07T19:41:12.918Z,5.45
2022-10-07T19:43:40.731Z,5.63
2022-10-07T19:46:08.080Z,4.85
2022-10-07T19:48:36.000Z,5.78
2022-10-07T19:51:04.672Z,5.20
2022-10-07T19:53:35.658Z,4.85
2022-10-07T19:56:04.034Z,5.25
2022-10-07T19:58:34.215Z,5.13
2022-10-07T20:01:08.430Z,5.28
2022-10-07T20:03:36.011Z,4.38
2022-10-07T20:06:08.613Z,4.88
2022-10-07T20:08:36.846Z,5.10
2022-10-07T20:11:04.253Z,5.25
2022-10-07T20:13:32.744Z,4.50
2022-10-07T20:16:07.765Z,5.00
2022-10-07T20:18:35.918Z,5.30
2022-10-07T20:21:15.959Z,5.18
2022-10-07T20:23:44.517Z,4.97
2022-10-07T20:26:15.972Z,4.70
2022-10-07T20:28:43.342Z,4.68
2022-10-07T20:31:11.554Z,4.97
2022-10-07T20:33:39.289Z,4.85
2022-10-07T20:36:07.417Z,4.80
2022-10-07T20:38:54.737Z,4.82
2022-10-07T20:41:41.162Z,5.28
2022-10-07T20:44:09.279Z,4.55
2022-10-07T20:46:37.958Z,5.00
2022-10-07T20:49:25.906Z,5.07
2022-10-07T20:51:54.176Z,4.85
2022-10-07T20:54:22.457Z,4.72
2022-10-07T20:56:51.462Z,5.00
2022-10-07T20:59:18.571Z,5.30
2022-10-07T21:01:45.884Z,5.20
2022-10-07T21:04:14.854Z,5.35
2022-10-07T21:06:42.622Z,5.15
2022-10-07T21:09:13.352Z,5.55
2022-10-07T21:11:40.469Z,5.95
2022-10-07T21:14:07.604Z,6.07
2022-10-07T21:16:36.412Z,5.43
2022-10-07T21:19:04.114Z,6.28
2022-10-07T21:21:31.495Z,5.38
2022-10-07T21:23:58.619Z,5.28
2022-10-07T21:26:26.203Z,6.50
2022-10-07T21:28:53.346Z,5.80
2022-10-07T21:31:21.927Z,5.88
2022-10-07T21:33:50.237Z,5.95
2022-10-07T21:36:19.903Z,6.00
2022-10-07T21:38:48.664Z,5.72
2022-10-07T21:41:18.161Z,5.80
2022-10-07T21:43:49.303Z,5.95
2022-10-07T21:46:16.637Z,6.00
2022-10-07T21:48:44.339Z,5.53
2022-10-07T21:51:11.821Z,5.72
2022-10-07T21:53:39.059Z,5.63
2022-10-07T21:56:06.937Z,5.10
2022-10-07T21:58:35.937Z,6.00
2022-10-07T22:01:04.496Z,6.72
2022-10-07T22:03:31.693Z,5.97
2022-10-07T22:06:05.649Z,5.60
2022-10-07T22:08:36.762Z,5.78
2022-10-07T22:11:14.980Z,5.13
2022-10-07T22:13:43.649Z,5.60
2022-10-07T22:16:15.679Z,4.90
2022-10-07T22:18:48.100Z,4.88
2022-10-07T22:21:16.622Z,5.25
2022-10-07T22:23:44.059Z,4.75
2022-10-07T22:26:12.737Z,4.72
2022-10-07T22:28:40.881Z,4.38
2022-10-07T22:31:09.311Z,5.25
2022-10-07T22:33:37.138Z,5.25
2022-10-07T22:36:05.309Z,4.70
2022-10-07T22:38:32.689Z,5.20
2022-10-07T22:41:06.638Z,5.03
2022-10-07T22:43:39.145Z,5.15
2022-10-07T22:46:07.112Z,5.20
2022-10-07T22:48:35.177Z,4.70
2022-10-07T22:51:06.587Z,5.28
2022-10-07T22:53:34.917Z,4.95
2022-10-07T22:56:02.974Z,5.13
2022-10-07T22:58:32.807Z,4.88
2022-10-07T23:01:13.335Z,4.95
2022-10-07T23:03:43.790Z,5.28
2022-10-07T23:06:12.409Z,5.00
2022-10-07T23:08:39.973Z,4.95
2022-10-07T23:11:07.870Z,5.25
2022-10-07T23:13:35.809Z,5.90
2022-10-07T23:16:03.759Z,5.65
2022-10-07T23:18:31.079Z,6.00
2022-10-07T23:21:01.723Z,5.88
2022-10-07T23:23:29.211Z,5.63
2022-10-07T23:25:56.570Z,5.10
2022-10-07T23:28:25.838Z,5.32
2022-10-07T23:30:53.337Z,5.82
2022-10-07T23:33:21.193Z,5.28
2022-10-07T23:35:48.328Z,5.57
2022-10-07T23:38:17.557Z,5.55
2022-10-07T23:40:44.688Z,5.47
2022-10-07T23:43:12.248Z,5.05
2022-10-07T23:45:39.365Z,5.63
2022-10-07T23:48:06.494Z,5.85
2022-10-07T23:50:34.388Z,5.35
2022-10-07T23:53:01.490Z,4.70
2022-10-07T23:55:28.663Z,5.80
2022-10-07T23:57:55.803Z,5.00
